createdAt,value
2024-04-14T00:01:47.750Z,5.07
2024-04-14T00:04:14.546Z,5.43
2024-04-14T00:06:41.271Z,5.07
2024-04-14T00:09:07.981Z,4.50
2024-04-14T00:11:34.643Z,4.50
2024-04-14T00:14:01.302Z,4.33
2024-04-14T00:16:27.937Z,4.77
2024-04-14T00:18:54.758Z,4.50
2024-04-14T00:21:23.688Z,4.37
2024-04-14T00:23:51.510Z,4.23
2024-04-14T00:26:18.116Z,3.90
2024-04-14T00:28:46.374Z,4.67
2024-04-14T00:31:13.054Z,4.37
2024-04-14T00:33:39.845Z,4.70
2024-04-14T00:36:06.851Z,4.87
2024-04-14T00:38:33.584Z,4.73
2024-04-14T00:41:01.238Z,4.70
2024-04-14T00:43:28.009Z,4.70
2024-04-14T00:45:54.766Z,5.20
2024-04-14T00:48:23.430Z,4.67
2024-04-14T00:50:51.176Z,5.00
2024-04-14T00:53:18.941Z,4.87
2024-04-14T00:55:46.129Z,4.63
2024-04-14T00:58:13.244Z,4.83
2024-04-14T01:00:40.779Z,4.93
2024-04-14T01:03:08.361Z,4.70
2024-04-14T01:05:35.147Z,4.50
2024-04-14T01:08:02.425Z,4.90
2024-04-14T01:10:30.972Z,4.80
2024-04-14T01:12:57.869Z,4.27
2024-04-14T01:15:24.997Z,4.70
2024-04-14T01:17:51.934Z,4.60
2024-04-14T01:20:19.632Z,4.60
2024-04-14T01:22:46.274Z,5.07
2024-04-14T01:25:13.036Z,5.27
2024-04-14T01:27:41.963Z,4.83
2024-04-14T01:30:09.271Z,4.70
2024-04-14T01:32:39.002Z,4.73
2024-04-14T01:35:08.210Z,4.90
2024-04-14T01:37:35.227Z,4.80
2024-04-14T01:40:02.164Z,4.83
2024-04-14T01:42:31.021Z,5.00
2024-04-14T01:44:57.766Z,4.97
2024-04-14T01:47:24.453Z,4.87
2024-04-14T01:49:51.117Z,4.33
2024-04-14T01:52:18.408Z,5.03
2024-04-14T01:54:45.677Z,4.33
2024-04-14T01:57:12.928Z,4.60
2024-04-14T01:59:39.577Z,4.87
2024-04-14T02:02:06.259Z,4.50
2024-04-14T02:04:34.394Z,5.07
2024-04-14T02:07:01.376Z,4.50
2024-04-14T02:09:28.235Z,4.70
2024-04-14T02:11:54.875Z,5.13
2024-04-14T02:14:21.486Z,4.73
2024-04-14T02:16:48.146Z,4.47
2024-04-14T02:19:14.882Z,4.70
2024-04-14T02:21:43.623Z,5.23
2024-04-14T02:24:11.238Z,5.33
2024-04-14T02:26:37.957Z,4.80
2024-04-14T02:29:04.597Z,4.53
2024-04-14T02:31:31.244Z,5.10
2024-04-14T02:33:57.880Z,4.90
2024-04-14T02:36:28.327Z,4.63
2024-04-14T02:38:55.495Z,5.13
2024-04-14T02:41:22.217Z,4.70
2024-04-14T02:43:49.581Z,4.70
2024-04-14T02:46:16.638Z,5.27
2024-04-14T02:48:49.369Z,4.63
2024-04-14T02:51:16.116Z,4.90
2024-04-14T02:53:42.779Z,5.30
2024-04-14T02:56:09.418Z,4.83
2024-04-14T02:58:36.061Z,5.80
2024-04-14T03:01:03.999Z,4.83
2024-04-14T03:03:31.002Z,5.47
2024-04-14T03:06:05.344Z,5.47
2024-04-14T03:08:32.778Z,5.20
2024-04-14T03:10:59.984Z,5.67
2024-04-14T03:13:26.921Z,4.43
2024-04-14T03:15:54.415Z,5.23
2024-04-14T03:18:21.452Z,4.40
2024-04-14T03:21:02.941Z,4.60
2024-04-14T03:23:30.534Z,4.33
2024-04-14T03:25:57.532Z,4.37
2024-04-14T03:28:25.611Z,4.67
2024-04-14T03:30:53.437Z,4.20
2024-04-14T03:33:20.247Z,5.10
2024-04-14T03:35:46.912Z,4.63
2024-04-14T03:38:13.552Z,4.83
2024-04-14T03:40:40.219Z,4.70
2024-04-14T03:43:06.832Z,4.93
2024-04-14T03:45:34.383Z,4.90
2024-04-14T03:48:01.516Z,4.77
2024-04-14T03:50:28.233Z,4.50
2024-04-14T03:52:54.839Z,4.30
2024-04-14T03:55:21.465Z,4.83
2024-04-14T03:57:48.113Z,5.07
2024-04-14T04:00:14.860Z,5.00
2024-04-14T04:02:44.658Z,4.83
2024-04-14T04:05:11.417Z,4.63
2024-04-14T04:07:38.046Z,5.30
2024-04-14T04:10:05.121Z,5.50
2024-04-14T04:12:35.528Z,4.87
2024-04-14T04:15:05.383Z,5.47
2024-04-14T04:17:32.248Z,4.97
2024-04-14T04:19:59.019Z,5.00
2024-04-14T04:22:25.696Z,5.40
2024-04-14T04:24:52.296Z,5.23
2024-04-14T04:27:18.947Z,5.40
2024-04-14T04:29:45.572Z,6.20
2024-04-14T04:32:17.645Z,5.17
2024-04-14T04:34:47.199Z,5.10
2024-04-14T04:37:15.393Z,5.47
2024-04-14T04:39:42.100Z,5.00
2024-04-14T04:42:08.786Z,4.90
2024-04-14T04:44:35.383Z,4.77
2024-04-14T04:47:01.994Z,4.67
2024-04-14T04:49:28.667Z,5.23
2024-04-14T04:51:55.353Z,5.47
2024-04-14T04:54:22.000Z,5.40
2024-04-14T04:56:48.728Z,4.97
2024-04-14T04:59:15.438Z,5.60
2024-04-14T05:01:42.192Z,5.60
2024-04-14T05:04:08.892Z,5.37
2024-04-14T05:06:35.554Z,5.50
2024-04-14T05:09:02.225Z,5.57
2024-04-14T05:11:28.887Z,4.93
2024-04-14T05:13:55.531Z,5.43
2024-04-14T05:16:24.242Z,5.47
2024-04-14T05:18:51.062Z,5.83
2024-04-14T05:21:17.778Z,5.40
2024-04-14T05:23:44.458Z,5.27
2024-04-14T05:26:11.434Z,5.60
2024-04-14T05:28:38.001Z,5.63
2024-04-14T05:31:04.933Z,5.37
2024-04-14T05:33:42.182Z,5.53
2024-04-14T05:36:17.385Z,5.43
2024-04-14T05:38:48.787Z,5.40
2024-04-14T05:41:15.746Z,5.73
2024-04-14T05:43:42.390Z,5.37
2024-04-14T05:46:09.168Z,5.23
2024-04-14T05:48:36.090Z,5.13
2024-04-14T05:51:02.778Z,5.17
2024-04-14T05:53:29.406Z,4.87
2024-04-14T05:55:58.791Z,4.60
2024-04-14T05:58:25.407Z,4.70
2024-04-14T06:00:52.176Z,4.70
2024-04-14T06:03:20.284Z,5.00
2024-04-14T06:05:50.242Z,4.80
2024-04-14T06:08:18.758Z,4.90
2024-04-14T06:10:45.377Z,4.80
2024-04-14T06:13:14.651Z,4.70
2024-04-14T06:15:42.129Z,5.13
2024-04-14T06:18:08.899Z,4.47
2024-04-14T06:20:36.226Z,3.10
2024-04-14T06:23:02.827Z,3.10
2024-04-14T06:25:29.416Z,3.40
2024-04-14T06:27:56.119Z,3.03
2024-04-14T06:30:22.746Z,2.70
2024-04-14T06:32:50.979Z,2.73
2024-04-14T06:35:18.343Z,2.80
2024-04-14T06:37:45.205Z,3.00
2024-04-14T06:40:12.103Z,3.00
2024-04-14T06:42:39.401Z,3.33
2024-04-14T06:45:07.210Z,2.40
2024-04-14T06:47:35.094Z,2.60
2024-04-14T06:50:02.003Z,2.60
2024-04-14T06:52:28.582Z,2.87
2024-04-14T06:54:55.408Z,2.80
2024-04-14T06:57:22.117Z,2.53
2024-04-14T06:59:48.726Z,2.47
2024-04-14T07:02:17.014Z,2.80
2024-04-14T07:04:44.007Z,3.20
2024-04-14T07:07:11.087Z,2.80
2024-04-14T07:09:37.812Z,2.50
2024-04-14T07:12:04.494Z,2.70
2024-04-14T07:14:31.137Z,2.97
2024-04-14T07:16:57.789Z,2.63
2024-04-14T07:19:24.609Z,3.00
2024-04-14T07:21:51.335Z,2.97
2024-04-14T07:24:17.982Z,3.13
2024-04-14T07:26:44.706Z,3.43
2024-04-14T07:29:11.643Z,3.20
2024-04-14T07:31:38.261Z,3.10
2024-04-14T07:34:05.149Z,3.77
2024-04-14T07:36:31.886Z,3.57
2024-04-14T07:38:58.732Z,3.00
2024-04-14T07:41:25.342Z,3.50
2024-04-14T07:43:53.420Z,2.90
2024-04-14T07:46:20.263Z,3.10
2024-04-14T07:48:47.164Z,3.17
2024-04-14T07:51:13.935Z,2.90
2024-04-14T07:53:40.545Z,2.57
2024-04-14T07:56:07.656Z,2.70
2024-04-14T07:58:34.262Z,3.03
2024-04-14T08:01:01.131Z,2.83
2024-04-14T08:03:28.912Z,2.53
2024-04-14T08:05:57.361Z,2.20
2024-04-14T08:08:24.033Z,2.80
2024-04-14T08:10:50.663Z,2.60
2024-04-14T08:13:17.415Z,2.40
2024-04-14T08:15:44.106Z,3.07
2024-04-14T08:18:10.732Z,2.40
2024-04-14T08:20:38.215Z,2.70
2024-04-14T08:23:05.251Z,2.20
2024-04-14T08:25:31.946Z,1.73
2024-04-14T08:27:58.748Z,1.70
2024-04-14T08:30:25.449Z,1.90
2024-04-14T08:32:52.173Z,1.60
2024-04-14T08:35:18.946Z,1.50
2024-04-14T08:37:45.769Z,1.53
2024-04-14T08:40:13.107Z,1.80
2024-04-14T08:42:40.454Z,1.50
2024-04-14T08:45:09.477Z,1.40
2024-04-14T08:47:36.826Z,1.40
2024-04-14T08:50:04.561Z,1.30
2024-04-14T08:52:32.065Z,1.40
2024-04-14T08:54:58.705Z,1.60
2024-04-14T08:57:28.120Z,1.30
2024-04-14T09:00:00.087Z,1.33
2024-04-14T09:02:28.649Z,1.40
2024-04-14T09:04:56.945Z,1.33
2024-04-14T09:07:23.626Z,1.20
2024-04-14T09:09:51.134Z,1.13
2024-04-14T09:12:18.341Z,1.13
2024-04-14T09:14:51.340Z,1.00
2024-04-14T09:17:17.968Z,1.50
2024-04-14T09:19:45.842Z,1.13
2024-04-14T09:22:15.119Z,1.40
2024-04-14T09:24:41.991Z,1.00
2024-04-14T09:27:08.691Z,1.00
2024-04-14T09:29:36.138Z,1.10
2024-04-14T09:32:05.866Z,0.97
2024-04-14T09:34:38.443Z,1.00
2024-04-14T09:37:09.569Z,0.70
2024-04-14T09:39:39.169Z,1.00
2024-04-14T09:42:06.531Z,1.07
2024-04-14T09:44:35.616Z,1.00
2024-04-14T09:47:04.292Z,0.90
2024-04-14T09:49:33.239Z,1.00
2024-04-14T09:51:59.977Z,1.00
2024-04-14T09:54:29.370Z,1.10
2024-04-14T09:56:56.103Z,1.20
2024-04-14T09:59:22.846Z,1.00
2024-04-14T10:01:51.010Z,0.80
2024-04-14T10:04:19.863Z,1.10
2024-04-14T10:06:47.644Z,1.00
2024-04-14T10:09:14.341Z,1.00
2024-04-14T10:11:43.544Z,0.80
2024-04-14T10:14:14.475Z,0.87
2024-04-14T10:16:52.462Z,1.00
2024-04-14T10:19:20.878Z,1.13
2024-04-14T10:21:48.156Z,1.10
2024-04-14T10:24:14.849Z,1.03
2024-04-14T10:26:42.944Z,1.00
2024-04-14T10:29:10.521Z,1.00
2024-04-14T10:31:37.171Z,1.13
2024-04-14T10:34:09.217Z,1.17
2024-04-14T10:36:44.130Z,1.13
2024-04-14T10:39:15.782Z,1.20
2024-04-14T10:41:42.577Z,1.20
2024-04-14T10:44:19.594Z,1.10
2024-04-14T10:46:49.777Z,1.00
2024-04-14T10:49:16.975Z,1.27
2024-04-14T10:51:43.689Z,1.00
2024-04-14T10:54:10.541Z,1.20
2024-04-14T10:56:37.144Z,0.80
2024-04-14T10:59:03.732Z,1.10
2024-04-14T11:01:31.340Z,0.87
2024-04-14T11:03:58.847Z,1.13
2024-04-14T11:06:26.147Z,0.97
2024-04-14T11:08:54.520Z,0.90
2024-04-14T11:11:21.333Z,0.90
2024-04-14T11:13:48.237Z,0.80
2024-04-14T11:16:16.996Z,0.90
2024-04-14T11:18:45.064Z,1.23
2024-04-14T11:21:18.352Z,0.70
2024-04-14T11:23:49.431Z,0.90
2024-04-14T11:26:16.146Z,1.07
2024-04-14T11:28:42.783Z,0.90
2024-04-14T11:31:09.555Z,1.10
2024-04-14T11:33:38.393Z,0.80
2024-04-14T11:36:11.142Z,0.90
2024-04-14T11:38:38.484Z,1.13
2024-04-14T11:41:05.965Z,0.90
2024-04-14T11:43:32.656Z,0.90
2024-04-14T11:45:59.303Z,1.00
2024-04-14T11:48:26.160Z,1.10
2024-04-14T11:50:53.357Z,0.83
2024-04-14T11:53:19.988Z,0.97
2024-04-14T11:55:46.696Z,0.97
2024-04-14T11:58:14.671Z,0.90
2024-04-14T12:00:43.576Z,0.93
2024-04-14T12:03:10.387Z,0.90
2024-04-14T12:05:37.096Z,0.80
2024-04-14T12:08:04.118Z,0.80
2024-04-14T12:10:31.455Z,0.85
2024-04-14T12:12:58.160Z,1.13
2024-04-14T12:15:24.777Z,1.25
2024-04-14T12:17:51.431Z,1.20
2024-04-14T12:20:18.040Z,1.65
2024-04-14T12:22:44.693Z,1.48
2024-04-14T12:25:12.107Z,1.30
2024-04-14T12:27:39.317Z,1.08
2024-04-14T12:30:06.491Z,1.02
2024-04-14T12:32:33.115Z,1.23
2024-04-14T12:35:03.004Z,0.88
2024-04-14T12:37:29.583Z,0.88
2024-04-14T12:39:56.214Z,0.85
2024-04-14T12:42:22.931Z,0.80
2024-04-14T12:44:49.589Z,0.70
2024-04-14T12:47:16.199Z,0.80
2024-04-14T12:49:42.803Z,0.70
2024-04-14T12:52:09.465Z,0.63
2024-04-14T12:54:36.155Z,0.80
2024-04-14T12:57:03.061Z,0.60
2024-04-14T12:59:29.688Z,0.88
2024-04-14T13:01:56.383Z,0.65
2024-04-14T13:04:23.364Z,0.70
2024-04-14T13:06:50.180Z,0.60
2024-04-14T13:09:16.873Z,0.65
2024-04-14T13:11:43.884Z,0.80
2024-04-14T13:14:12.199Z,0.60
2024-04-14T13:16:38.977Z,0.60
2024-04-14T13:19:05.722Z,0.80
2024-04-14T13:21:34.633Z,0.60
2024-04-14T13:24:01.498Z,0.50
2024-04-14T13:26:28.980Z,0.50
2024-04-14T13:28:55.654Z,0.60
2024-04-14T13:31:22.237Z,0.70
2024-04-14T13:33:49.609Z,0.63
2024-04-14T13:36:16.493Z,0.60
2024-04-14T13:38:43.119Z,0.60
2024-04-14T13:41:10.215Z,0.60
2024-04-14T13:43:37.090Z,0.60
2024-04-14T13:46:03.820Z,0.50
2024-04-14T13:48:30.576Z,0.50
2024-04-14T13:50:57.220Z,0.50
2024-04-14T13:53:23.896Z,0.50
2024-04-14T13:55:50.500Z,0.50
2024-04-14T13:58:21.228Z,0.50
2024-04-14T14:00:48.325Z,0.43
2024-04-14T14:03:14.903Z,0.50
2024-04-14T14:05:41.601Z,0.40
2024-04-14T14:08:08.187Z,0.40
2024-04-14T14:10:34.806Z,0.57
2024-04-14T14:13:02.629Z,0.47
2024-04-14T14:15:29.571Z,0.40
2024-04-14T14:17:56.322Z,0.50
2024-04-14T14:20:23.453Z,0.50
2024-04-14T14:22:50.106Z,0.40
2024-04-14T14:25:16.875Z,0.50
2024-04-14T14:27:43.495Z,0.40
2024-04-14T14:30:10.492Z,0.50
2024-04-14T14:32:38.423Z,0.30
2024-04-14T14:35:23.781Z,0.50
2024-04-14T14:37:51.088Z,0.50
2024-04-14T14:40:18.109Z,0.33
2024-04-14T14:42:44.817Z,0.50
2024-04-14T14:45:13.885Z,0.40
2024-04-14T14:47:40.489Z,0.30
2024-04-14T14:50:07.240Z,0.50
2024-04-14T14:52:33.849Z,0.50
2024-04-14T14:55:00.488Z,0.60
2024-04-14T14:57:27.201Z,0.40
2024-04-14T14:59:53.765Z,0.60
2024-04-14T15:02:20.387Z,0.43
2024-04-14T15:04:47.325Z,0.50
2024-04-14T15:07:14.096Z,0.60
2024-04-14T15:09:40.967Z,0.50
2024-04-14T15:12:10.749Z,0.50
2024-04-14T15:14:38.914Z,0.40
2024-04-14T15:17:05.582Z,0.40
2024-04-14T15:19:34.807Z,0.57
2024-04-14T15:22:01.747Z,0.47
2024-04-14T15:24:28.389Z,0.50
2024-04-14T15:26:54.976Z,0.47
2024-04-14T15:29:21.634Z,0.50
2024-04-14T15:31:48.270Z,0.50
2024-04-14T15:34:15.087Z,0.50
2024-04-14T15:36:41.858Z,0.50
2024-04-14T15:39:08.477Z,0.40
2024-04-14T15:41:35.120Z,0.43
2024-04-14T15:44:07.748Z,0.47
2024-04-14T15:46:41.449Z,0.50
2024-04-14T15:49:10.517Z,0.60
2024-04-14T15:51:39.553Z,0.40
2024-04-14T15:54:06.259Z,0.60
2024-04-14T15:56:32.967Z,0.50
2024-04-14T15:58:59.822Z,0.40
2024-04-14T16:01:26.993Z,0.50
2024-04-14T16:03:54.272Z,0.43
2024-04-14T16:06:22.424Z,0.50
2024-04-14T16:08:54.686Z,0.50
2024-04-14T16:11:23.148Z,0.47
2024-04-14T16:13:57.158Z,0.70
2024-04-14T16:16:24.017Z,0.60
2024-04-14T16:18:51.519Z,0.60
2024-04-14T16:21:19.025Z,0.50
2024-04-14T16:23:47.511Z,0.50
2024-04-14T16:26:14.448Z,0.50
2024-04-14T16:28:41.483Z,0.90
2024-04-14T16:31:08.665Z,0.50
2024-04-14T16:33:36.077Z,0.60
2024-04-14T16:36:03.065Z,0.40
2024-04-14T16:38:29.651Z,0.70
2024-04-14T16:40:56.423Z,0.60
2024-04-14T16:43:23.612Z,0.50
2024-04-14T16:45:50.342Z,0.40
2024-04-14T16:48:17.925Z,0.80
2024-04-14T16:50:44.755Z,0.70
2024-04-14T16:53:11.394Z,0.57
2024-04-14T16:55:38.153Z,0.60
2024-04-14T16:58:04.783Z,0.60
2024-04-14T17:00:31.416Z,0.50
2024-04-14T17:02:58.942Z,0.60
2024-04-14T17:05:25.827Z,0.50
2024-04-14T17:07:52.493Z,0.50
2024-04-14T17:10:20.374Z,0.60
2024-04-14T17:12:47.201Z,0.60
2024-04-14T17:15:17.153Z,0.77
2024-04-14T17:17:44.440Z,0.40
2024-04-14T17:20:11.087Z,0.67
2024-04-14T17:22:37.781Z,0.60
2024-04-14T17:25:04.824Z,0.60
2024-04-14T17:27:31.715Z,0.50
2024-04-14T17:29:58.418Z,0.50
2024-04-14T17:32:25.136Z,0.60
2024-04-14T17:34:51.782Z,0.50
2024-04-14T17:37:18.425Z,0.57
2024-04-14T17:39:45.071Z,0.50
2024-04-14T17:42:12.716Z,0.50
2024-04-14T17:44:39.424Z,0.40
2024-04-14T17:47:09.421Z,0.50
2024-04-14T17:49:36.152Z,0.50
2024-04-14T17:52:03.127Z,0.60
2024-04-14T17:54:30.117Z,0.67
2024-04-14T17:56:56.871Z,0.40
2024-04-14T17:59:23.791Z,0.60
2024-04-14T18:01:50.586Z,0.70
2024-04-14T18:04:17.317Z,0.60
2024-04-14T18:06:44.018Z,0.70
2024-04-14T18:09:10.669Z,0.50
2024-04-14T18:11:42.090Z,0.50
2024-04-14T18:14:09.832Z,0.70
2024-04-14T18:16:37.527Z,0.60
2024-04-14T18:19:04.788Z,0.57
2024-04-14T18:21:31.425Z,0.60
2024-04-14T18:24:00.861Z,0.70
2024-04-14T18:26:29.400Z,0.53
2024-04-14T18:28:56.078Z,1.20
2024-04-14T18:31:23.652Z,0.70
2024-04-14T18:33:50.394Z,0.47
2024-04-14T18:36:19.152Z,0.60
2024-04-14T18:38:46.616Z,0.50
2024-04-14T18:41:13.404Z,0.70
2024-04-14T18:43:40.252Z,0.70
2024-04-14T18:46:07.247Z,0.63
2024-04-14T18:48:35.707Z,0.57
2024-04-14T18:51:06.557Z,0.80
2024-04-14T18:53:33.753Z,0.73
2024-04-14T18:56:04.342Z,0.60
2024-04-14T18:58:33.318Z,0.60
2024-04-14T19:01:03.287Z,0.80
2024-04-14T19:03:30.384Z,0.80
2024-04-14T19:06:02.136Z,0.90
2024-04-14T19:08:29.992Z,1.00
2024-04-14T19:10:56.772Z,1.00
2024-04-14T19:13:23.492Z,1.07
2024-04-14T19:15:57.912Z,1.17
2024-04-14T19:18:25.660Z,0.90
2024-04-14T19:20:53.504Z,0.90
2024-04-14T19:23:20.813Z,1.03
2024-04-14T19:25:47.817Z,1.17
2024-04-14T19:28:16.581Z,1.20
2024-04-14T19:30:43.730Z,1.10
2024-04-14T19:33:10.415Z,1.20
2024-04-14T19:35:43.822Z,0.90
2024-04-14T19:38:17.893Z,1.17
2024-04-14T19:40:44.701Z,1.00
2024-04-14T19:43:11.495Z,1.00
2024-04-14T19:45:38.258Z,1.20
2024-04-14T19:48:05.254Z,1.07
2024-04-14T19:50:32.202Z,1.37
2024-04-14T19:52:58.918Z,1.40
2024-04-14T19:55:25.850Z,1.43
2024-04-14T19:57:54.380Z,1.60
2024-04-14T20:00:22.071Z,1.80
2024-04-14T20:02:48.883Z,1.93
2024-04-14T20:05:15.577Z,2.43
2024-04-14T20:07:42.188Z,2.60
2024-04-14T20:10:10.202Z,2.37
2024-04-14T20:12:37.035Z,2.60
2024-04-14T20:15:05.079Z,2.10
2024-04-14T20:17:31.929Z,2.30
2024-04-14T20:19:58.642Z,2.10
2024-04-14T20:22:25.249Z,2.03
2024-04-14T20:24:52.502Z,1.97
2024-04-14T20:27:19.206Z,2.13
2024-04-14T20:29:45.846Z,2.10
2024-04-14T20:32:12.500Z,2.57
2024-04-14T20:34:39.288Z,2.67
2024-04-14T20:37:05.945Z,3.30
2024-04-14T20:39:32.554Z,2.87
2024-04-14T20:41:59.389Z,3.07
2024-04-14T20:44:26.140Z,2.87
2024-04-14T20:46:52.782Z,2.70
2024-04-14T20:49:19.488Z,2.80
2024-04-14T20:51:46.171Z,2.67
2024-04-14T20:54:12.781Z,2.60
2024-04-14T20:56:39.360Z,2.23
2024-04-14T20:59:06.142Z,1.97
2024-04-14T21:01:32.895Z,2.00
2024-04-14T21:03:59.799Z,1.60
2024-04-14T21:06:26.474Z,2.00
2024-04-14T21:08:53.223Z,1.90
2024-04-14T21:11:19.920Z,1.80
2024-04-14T21:13:46.635Z,1.70
2024-04-14T21:16:13.583Z,2.07
2024-04-14T21:18:42.425Z,1.90
2024-04-14T21:21:09.425Z,1.40
2024-04-14T21:23:36.181Z,1.90
2024-04-14T21:26:04.201Z,2.20
2024-04-14T21:28:31.632Z,1.77
2024-04-14T21:30:58.299Z,2.50
2024-04-14T21:33:25.147Z,2.00
2024-04-14T21:35:52.760Z,1.90
2024-04-14T21:38:19.551Z,2.00
2024-04-14T21:40:53.497Z,1.87
2024-04-14T21:43:20.526Z,1.93
2024-04-14T21:45:58.191Z,1.70
2024-04-14T21:48:27.009Z,1.50
2024-04-14T21:51:04.030Z,1.90
2024-04-14T21:53:31.006Z,1.83
2024-04-14T21:55:59.289Z,1.70
2024-04-14T21:58:27.530Z,2.40
2024-04-14T22:00:54.976Z,2.50
2024-04-14T22:03:26.146Z,2.90
2024-04-14T22:05:57.657Z,2.80
2024-04-14T22:08:26.225Z,2.37
2024-04-14T22:10:53.084Z,2.50
2024-04-14T22:13:21.072Z,3.07
2024-04-14T22:15:48.391Z,2.73
2024-04-14T22:18:15.302Z,2.70
2024-04-14T22:20:41.926Z,3.27
2024-04-14T22:23:08.574Z,3.47
2024-04-14T22:25:35.440Z,3.97
2024-04-14T22:28:02.090Z,2.83
2024-04-14T22:30:28.715Z,2.77
2024-04-14T22:32:55.407Z,2.37
2024-04-14T22:35:22.990Z,2.30
2024-04-14T22:37:49.616Z,2.30
2024-04-14T22:40:16.373Z,2.47
2024-04-14T22:42:43.038Z,2.20
2024-04-14T22:45:09.626Z,2.67
2024-04-14T22:47:36.207Z,2.23
2024-04-14T22:50:03.638Z,1.90
2024-04-14T22:52:33.256Z,1.97
2024-04-14T22:55:00.496Z,2.60
2024-04-14T22:57:27.527Z,2.17
2024-04-14T22:59:54.164Z,2.10
2024-04-14T23:02:20.764Z,2.30
2024-04-14T23:04:47.539Z,2.00
2024-04-14T23:07:14.236Z,2.37
2024-04-14T23:09:41.263Z,2.63
2024-04-14T23:12:08.182Z,2.80
2024-04-14T23:14:35.185Z,2.50
2024-04-14T23:17:01.802Z,2.07
2024-04-14T23:19:28.465Z,1.77
2024-04-14T23:21:55.093Z,1.70
2024-04-14T23:24:21.746Z,1.80
2024-04-14T23:26:48.509Z,1.87
2024-04-14T23:29:15.150Z,2.10
2024-04-14T23:31:43.093Z,1.90
2024-04-14T23:34:09.791Z,1.97
2024-04-14T23:36:37.131Z,2.13
2024-04-14T23:39:04.130Z,1.80
2024-04-14T23:41:30.761Z,2.10
2024-04-14T23:43:57.501Z,2.10
2024-04-14T23:46:24.250Z,2.20
2024-04-14T23:48:50.943Z,2.27
2024-04-14T23:51:17.725Z,2.20
2024-04-14T23:53:46.648Z,2.37
2024-04-14T23:56:13.267Z,2.40
2024-04-14T23:58:41.338Z,2.60
